TimeMDT,TemperatureF,Dew PointF,Humidity,Sea Level PressureIn,VisibilityMPH,Wind Direction,Wind SpeedMPH,Gust SpeedMPH,PrecipitationIn,Events,Conditions,WindDirDegrees,DateUTC
12:14 AM,51.6,41.9,69,30.10,10.0,SSW,5.8,-,N/A,,Clear,200,2013-10-02 06:14:00
12:34 AM,48.6,41.4,76,30.09,10.0,WSW,6.9,-,N/A,,Clear,250,2013-10-02 06:34:00
12:54 AM,47.8,40.5,76,30.09,10.0,West,4.6,-,N/A,,Clear,280,2013-10-02 06:54:00
1:14 AM,48.4,41.2,76,30.08,10.0,WSW,4.6,-,N/A,,Clear,240,2013-10-02 07:14:00
1:34 AM,49.5,41.0,73,30.08,10.0,NNW,4.6,-,N/A,,Clear,330,2013-10-02 07:34:00
1:54 AM,47.3,41.0,79,30.08,10.0,NNW,6.9,-,N/A,,Clear,330,2013-10-02 07:54:00
2:14 AM,47.3,41.0,79,30.07,10.0,NNW,6.9,-,N/A,,Clear,330,2013-10-02 08:14:00
2:34 AM,45.9,40.5,81,30.07,10.0,NNW,5.8,-,N/A,,Clear,330,2013-10-02 08:34:00
2:54 AM,47.3,40.5,77,30.06,10.0,NNW,5.8,-,N/A,,Clear,330,2013-10-02 08:54:00
3:14 AM,44.6,39.9,84,30.05,10.0,Calm,Calm,-,N/A,,Clear,0,2013-10-02 09:14:00
3:34 AM,46.4,39.2,76,30.05,10.0,Calm,Calm,-,N/A,,Clear,0,2013-10-02 09:34:00
3:54 AM,48.4,39.2,71,30.05,10.0,North,3.5,-,N/A,,Clear,10,2013-10-02 09:54:00
4:14 AM,49.1,38.8,68,30.05,10.0,Calm,Calm,-,N/A,,Clear,0,2013-10-02 10:14:00
4:34 AM,51.3,36.7,57,30.05,10.0,North,6.9,-,N/A,,Clear,360,2013-10-02 10:34:00
4:54 AM,50.4,36.3,59,30.05,10.0,North,3.5,-,N/A,,Clear,360,2013-10-02 10:54:00
5:14 AM,50.2,35.6,57,30.05,10.0,NW,8.1,-,N/A,,Clear,320,2013-10-02 11:14:00
5:34 AM,52.0,34.2,51,30.05,10.0,NNW,9.2,-,N/A,,Clear,330,2013-10-02 11:34:00
5:54 AM,52.0,33.3,49,30.05,10.0,NW,11.5,17.3,N/A,,Clear,320,2013-10-02 11:54:00
6:14 AM,52.7,32.7,47,30.06,10.0,NW,11.5,16.1,N/A,,Clear,320,2013-10-02 12:14:00
6:34 AM,55.2,32.0,41,30.06,10.0,NNW,9.2,-,N/A,,Clear,340,2013-10-02 12:34:00
6:54 AM,55.4,31.6,40,30.06,10.0,NNW,9.2,-,N/A,,Clear,340,2013-10-02 12:54:00
7:14 AM,54.7,32.0,42,30.07,10.0,NNW,9.2,-,N/A,,Clear,330,2013-10-02 13:14:00
7:34 AM,56.7,31.6,39,30.07,10.0,NNW,8.1,-,N/A,,Clear,330,2013-10-02 13:34:00
7:54 AM,58.8,31.3,35,30.08,10.0,NNW,10.4,16.1,N/A,,Clear,330,2013-10-02 13:54:00
8:14 AM,61.2,31.5,33,30.08,10.0,NNW,9.2,18.4,N/A,,Clear,330,2013-10-02 14:14:00
8:34 AM,64.2,29.1,27,30.09,10.0,NNW,9.2,17.3,N/A,,Clear,340,2013-10-02 14:34:00
8:54 AM,66.2,28.9,25,30.09,10.0,North,9.2,-,N/A,,Clear,350,2013-10-02 14:54:00
9:14 AM,67.3,27.0,22,30.10,10.0,NNW,11.5,16.1,N/A,,Clear,340,2013-10-02 15:14:00
9:34 AM,68.0,27.1,22,30.10,10.0,North,11.5,17.3,N/A,,Clear,350,2013-10-02 15:34:00
9:54 AM,68.5,27.5,22,30.10,10.0,North,12.7,18.4,N/A,,Clear,10,2013-10-02 15:54:00
10:14 AM,68.4,28.2,22,30.10,10.0,North,13.8,19.6,N/A,,Clear,10,2013-10-02 16:14:00
10:34 AM,68.9,28.2,22,30.10,10.0,North,13.8,19.6,N/A,,Clear,360,2013-10-02 16:34:00
10:54 AM,69.8,28.9,22,30.10,10.0,North,8.1,18.4,N/A,,Clear,10,2013-10-02 16:54:00
11:14 AM,70.7,28.8,21,30.10,10.0,North,11.5,18.4,N/A,,Clear,10,2013-10-02 17:14:00
11:34 AM,70.9,30.2,22,30.09,10.0,North,9.2,-,N/A,,Clear,360,2013-10-02 17:34:00
11:54 AM,71.4,29.8,21,30.09,10.0,NE,9.2,-,N/A,,Clear,40,2013-10-02 17:54:00
12:14 PM,71.6,30.9,22,30.08,10.0,NE,11.5,16.1,N/A,,Clear,40,2013-10-02 18:14:00
12:34 PM,72.3,29.5,20,30.08,10.0,NE,13.8,-,N/A,,Clear,50,2013-10-02 18:34:00
12:54 PM,72.0,31.3,22,30.08,10.0,NE,9.2,-,N/A,,Clear,40,2013-10-02 18:54:00
1:14 PM,72.7,30.9,21,30.07,10.0,NE,13.8,20.7,N/A,,Clear,50,2013-10-02 19:14:00
1:34 PM,72.3,32.2,23,30.06,10.0,NE,12.7,19.6,N/A,,Clear,50,2013-10-02 19:34:00
1:54 PM,72.5,32.9,23,30.05,10.0,NE,11.5,17.3,N/A,,Clear,50,2013-10-02 19:54:00
2:14 PM,72.5,32.5,23,30.05,10.0,ENE,16.1,21.9,N/A,,Clear,60,2013-10-02 20:14:00
2:34 PM,72.3,30.9,22,30.04,10.0,ENE,16.1,-,N/A,,Clear,60,2013-10-02 20:34:00
2:54 PM,72.5,31.5,22,30.04,10.0,NE,12.7,19.6,N/A,,Clear,40,2013-10-02 20:54:00
3:14 PM,72.0,31.8,23,30.04,10.0,NE,13.8,19.6,N/A,,Clear,50,2013-10-02 21:14:00
3:34 PM,71.6,31.5,23,30.03,10.0,NE,15.0,21.9,N/A,,Clear,50,2013-10-02 21:34:00
3:54 PM,71.4,31.6,23,30.03,10.0,NE,13.8,21.9,N/A,,Clear,50,2013-10-02 21:54:00
4:14 PM,71.6,31.6,23,30.02,10.0,ENE,13.8,18.4,N/A,,Clear,60,2013-10-02 22:14:00
4:34 PM,69.3,31.8,25,30.02,10.0,NE,12.7,16.1,N/A,,Clear,50,2013-10-02 22:34:00
4:54 PM,69.6,32.4,25,30.02,10.0,ENE,11.5,-,N/A,,Clear,60,2013-10-02 22:54:00
5:14 PM,69.8,34.0,27,30.02,10.0,NE,12.7,-,N/A,,Clear,50,2013-10-02 23:14:00
5:34 PM,69.4,34.2,27,30.01,10.0,NE,16.1,-,N/A,,Clear,50,2013-10-02 23:34:00
5:54 PM,67.5,35.8,31,30.01,10.0,NE,12.7,-,N/A,,Clear,50,2013-10-02 23:54:00
6:14 PM,65.7,37.9,36,30.01,10.0,NE,10.4,-,N/A,,Clear,50,2013-10-03 00:14:00
6:34 PM,62.8,39.7,43,30.01,10.0,NE,10.4,-,N/A,,Clear,40,2013-10-03 00:34:00
6:54 PM,61.2,39.4,45,30.01,10.0,NNE,11.5,-,N/A,,Clear,30,2013-10-03 00:54:00
7:14 PM,60.1,40.3,48,30.01,10.0,NE,4.6,-,N/A,,Clear,40,2013-10-03 01:14:00
7:34 PM,59.0,40.1,50,30.02,10.0,NNE,5.8,-,N/A,,Clear,30,2013-10-03 01:34:00
7:54 PM,58.6,40.1,50,30.02,10.0,NNE,4.6,-,N/A,,Clear,30,2013-10-03 01:54:00
8:14 PM,57.0,40.5,54,30.02,10.0,NE,4.6,-,N/A,,Clear,40,2013-10-03 02:14:00
8:34 PM,54.9,41.5,61,30.02,10.0,NNE,3.5,-,N/A,,Clear,20,2013-10-03 02:34:00
8:54 PM,54.9,41.9,62,30.02,10.0,North,3.5,-,N/A,,Clear,10,2013-10-03 02:54:00
9:14 PM,55.0,41.0,59,30.02,10.0,NE,6.9,-,N/A,,Clear,50,2013-10-03 03:14:00
9:34 PM,53.2,41.9,65,30.02,10.0,North,3.5,-,N/A,,Clear,10,2013-10-03 03:34:00
9:54 PM,54.0,41.5,63,30.02,10.0,North,5.8,-,N/A,,Clear,350,2013-10-03 03:54:00
10:14 PM,54.0,41.5,63,30.02,10.0,NNW,8.1,-,N/A,,Clear,340,2013-10-03 04:14:00
10:34 PM,54.1,41.0,61,30.02,10.0,North,4.6,-,N/A,,Clear,360,2013-10-03 04:34:00
10:54 PM,52.0,41.2,67,30.02,10.0,NNW,5.8,-,N/A,,Clear,340,2013-10-03 04:54:00
11:14 PM,51.8,42.8,71,30.01,10.0,NNW,8.1,-,N/A,,Clear,340,2013-10-03 05:14:00
11:34 PM,52.2,42.8,70,30.00,10.0,NNW,9.2,-,N/A,,Clear,340,2013-10-03 05:34:00
11:54 PM,51.8,42.8,71,29.98,10.0,NNW,8.1,-,N/A,,Clear,340,2013-10-03 05:54:00